Plymouth, Maine
Current Conditions -  °F | °C
As of 5:28 AM on Tuesday 27 Jan 2015 (Local Time) from KBGR Reporting Station
Light Snow Light Snow  
Wind Chill: -15°   Ceiling: 1600
Heat Index:   Visibility: 1mi
Dew Point: -1°   Wind: 30mph
Humidity: 67%   Direction: 30°NNE
Pressure: 29.94"   Gusts: 37mph
Location:  44.77°N, 69.21°W
Report Text: KBGR 271028Z 03026G32KT 1SM R15/P6000FT -SN VV016 M13/M18 A2994 RMK AO2 PK WND 03033/1009 SNB04 P0000 T11331183
Loading
Personal Weather Stations






























Interactive Weather Map New forecast layout! Learn more

10-Day Weather Forecast

Advertisements
Track Severe Weather on mobile